sensor_id;sensor_type;location;lat;lon;timestamp;P1;durP1;ratioP1;P2;durP2;ratioP2
76405;SDS011;65234;50.044;19.258;2023-04-04T00:00:08;136.40;;;129.85;;
76405;SDS011;65234;50.044;19.258;2023-04-04T00:02:53;136.63;;;129.30;;
76405;SDS011;65234;50.044;19.258;2023-04-04T00:05:19;134.68;;;128.43;;
76405;SDS011;65234;50.044;19.258;2023-04-04T00:07:44;140.57;;;133.68;;
76405;SDS011;65234;50.044;19.258;2023-04-04T00:10:11;135.80;;;129.27;;
76405;SDS011;65234;50.044;19.258;2023-04-04T00:12:37;138.63;;;132.10;;
76405;SDS011;65234;50.044;19.258;2023-04-04T00:15:03;137.02;;;130.43;;
76405;SDS011;65234;50.044;19.258;2023-04-04T00:17:28;133.10;;;126.90;;
76405;SDS011;65234;50.044;19.258;2023-04-04T00:19:54;136.68;;;130.23;;
76405;SDS011;65234;50.044;19.258;2023-04-04T00:22:19;132.90;;;126.78;;
76405;SDS011;65234;50.044;19.258;2023-04-04T00:24:45;137.43;;;131.07;;
76405;SDS011;65234;50.044;19.258;2023-04-04T00:27:11;138.60;;;132.23;;
76405;SDS011;65234;50.044;19.258;2023-04-04T00:29:37;138.80;;;132.10;;
76405;SDS011;65234;50.044;19.258;2023-04-04T00:32:02;134.07;;;127.60;;
76405;SDS011;65234;50.044;19.258;2023-04-04T00:34:28;137.00;;;130.70;;
76405;SDS011;65234;50.044;19.258;2023-04-04T00:36:53;137.93;;;130.95;;
76405;SDS011;65234;50.044;19.258;2023-04-04T00:39:19;132.18;;;126.07;;
76405;SDS011;65234;50.044;19.258;2023-04-04T00:41:46;137.18;;;130.43;;
76405;SDS011;65234;50.044;19.258;2023-04-04T00:44:14;135.27;;;128.75;;
76405;SDS011;65234;50.044;19.258;2023-04-04T00:46:39;131.73;;;125.57;;
76405;SDS011;65234;50.044;19.258;2023-04-04T00:49:05;136.18;;;129.80;;
76405;SDS011;65234;50.044;19.258;2023-04-04T00:51:30;132.88;;;126.95;;
76405;SDS011;65234;50.044;19.258;2023-04-04T00:53:56;138.27;;;131.77;;
76405;SDS011;65234;50.044;19.258;2023-04-04T00:56:21;131.45;;;125.43;;
76405;SDS011;65234;50.044;19.258;2023-04-04T00:58:47;134.60;;;128.15;;
76405;SDS011;65234;50.044;19.258;2023-04-04T01:01:13;134.00;;;127.57;;
76405;SDS011;65234;50.044;19.258;2023-04-04T01:03:40;138.23;;;131.73;;
76405;SDS011;65234;50.044;19.258;2023-04-04T01:06:05;134.85;;;128.90;;
76405;SDS011;65234;50.044;19.258;2023-04-04T01:08:31;138.30;;;131.50;;
76405;SDS011;65234;50.044;19.258;2023-04-04T01:10:58;134.70;;;128.13;;
76405;SDS011;65234;50.044;19.258;2023-04-04T01:13:24;139.75;;;133.05;;
76405;SDS011;65234;50.044;19.258;2023-04-04T01:15:49;133.50;;;127.35;;
76405;SDS011;65234;50.044;19.258;2023-04-04T01:18:18;136.77;;;130.48;;
76405;SDS011;65234;50.044;19.258;2023-04-04T01:20:46;138.20;;;131.90;;
76405;SDS011;65234;50.044;19.258;2023-04-04T01:23:14;132.57;;;126.35;;
76405;SDS011;65234;50.044;19.258;2023-04-04T01:25:42;133.52;;;127.45;;
76405;SDS011;65234;50.044;19.258;2023-04-04T01:28:08;134.90;;;128.77;;
76405;SDS011;65234;50.044;19.258;2023-04-04T01:30:34;134.93;;;128.05;;
76405;SDS011;65234;50.044;19.258;2023-04-04T01:33:01;132.00;;;126.05;;
76405;SDS011;65234;50.044;19.258;2023-04-04T01:35:31;129.88;;;124.03;;
76405;SDS011;65234;50.044;19.258;2023-04-04T01:38:02;132.23;;;126.07;;
76405;SDS011;65234;50.044;19.258;2023-04-04T01:40:32;130.93;;;124.82;;
76405;SDS011;65234;50.044;19.258;2023-04-04T01:43:00;133.43;;;127.50;;
76405;SDS011;65234;50.044;19.258;2023-04-04T01:45:26;138.20;;;131.73;;
76405;SDS011;65234;50.044;19.258;2023-04-04T01:47:51;129.23;;;123.47;;
76405;SDS011;65234;50.044;19.258;2023-04-04T01:50:17;129.15;;;123.30;;
76405;SDS011;65234;50.044;19.258;2023-04-04T01:52:43;127.10;;;121.32;;
76405;SDS011;65234;50.044;19.258;2023-04-04T01:55:08;128.68;;;122.82;;
76405;SDS011;65234;50.044;19.258;2023-04-04T01:57:34;130.88;;;124.13;;
76405;SDS011;65234;50.044;19.258;2023-04-04T02:00:01;128.07;;;122.00;;
76405;SDS011;65234;50.044;19.258;2023-04-04T02:02:26;130.38;;;124.38;;
76405;SDS011;65234;50.044;19.258;2023-04-04T02:04:52;134.07;;;127.90;;
76405;SDS011;65234;50.044;19.258;2023-04-04T02:07:17;132.70;;;126.50;;
76405;SDS011;65234;50.044;19.258;2023-04-04T02:09:43;131.43;;;125.40;;
76405;SDS011;65234;50.044;19.258;2023-04-04T02:12:08;131.10;;;125.07;;
76405;SDS011;65234;50.044;19.258;2023-04-04T02:14:34;130.40;;;124.35;;
76405;SDS011;65234;50.044;19.258;2023-04-04T02:17:01;130.63;;;124.28;;
76405;SDS011;65234;50.044;19.258;2023-04-04T02:19:26;129.50;;;123.45;;
76405;SDS011;65234;50.044;19.258;2023-04-04T02:21:52;131.88;;;125.78;;
76405;SDS011;65234;50.044;19.258;2023-04-04T02:24:17;129.48;;;123.47;;
76405;SDS011;65234;50.044;19.258;2023-04-04T02:26:44;132.98;;;127.07;;
76405;SDS011;65234;50.044;19.258;2023-04-04T02:29:09;129.98;;;123.60;;
76405;SDS011;65234;50.044;19.258;2023-04-04T02:31:35;134.20;;;128.10;;
76405;SDS011;65234;50.044;19.258;2023-04-04T02:34:01;132.90;;;126.88;;
76405;SDS011;65234;50.044;19.258;2023-04-04T02:36:27;132.50;;;126.40;;
76405;SDS011;65234;50.044;19.258;2023-04-04T02:38:52;130.15;;;123.95;;
76405;SDS011;65234;50.044;19.258;2023-04-04T02:41:18;130.38;;;124.38;;
76405;SDS011;65234;50.044;19.258;2023-04-04T02:43:43;130.35;;;124.32;;
76405;SDS011;65234;50.044;19.258;2023-04-04T02:46:09;129.77;;;123.72;;
76405;SDS011;65234;50.044;19.258;2023-04-04T02:48:34;132.65;;;126.20;;
76405;SDS011;65234;50.044;19.258;2023-04-04T02:51:02;126.85;;;121.03;;
76405;SDS011;65234;50.044;19.258;2023-04-04T02:53:27;128.52;;;122.60;;
76405;SDS011;65234;50.044;19.258;2023-04-04T02:55:53;129.82;;;123.97;;
76405;SDS011;65234;50.044;19.258;2023-04-04T02:58:18;129.00;;;122.82;;
76405;SDS011;65234;50.044;19.258;2023-04-04T03:00:44;131.18;;;124.35;;
76405;SDS011;65234;50.044;19.258;2023-04-04T03:03:09;128.52;;;122.07;;
76405;SDS011;65234;50.044;19.258;2023-04-04T03:05:35;123.38;;;117.88;;
76405;SDS011;65234;50.044;19.258;2023-04-04T03:08:01;128.82;;;122.90;;
76405;SDS011;65234;50.044;19.258;2023-04-04T03:10:27;127.13;;;121.07;;
76405;SDS011;65234;50.044;19.258;2023-04-04T03:12:53;126.85;;;121.30;;
76405;SDS011;65234;50.044;19.258;2023-04-04T03:15:18;128.30;;;122.22;;
76405;SDS011;65234;50.044;19.258;2023-04-04T03:17:44;130.90;;;125.10;;
76405;SDS011;65234;50.044;19.258;2023-04-04T03:20:10;127.22;;;121.47;;
76405;SDS011;65234;50.044;19.258;2023-04-04T03:22:36;125.78;;;120.30;;
76405;SDS011;65234;50.044;19.258;2023-04-04T03:25:03;125.13;;;119.40;;
76405;SDS011;65234;50.044;19.258;2023-04-04T03:27:29;129.48;;;123.40;;
76405;SDS011;65234;50.044;19.258;2023-04-04T03:29:55;127.47;;;121.47;;
76405;SDS011;65234;50.044;19.258;2023-04-04T03:32:20;125.15;;;119.63;;
76405;SDS011;65234;50.044;19.258;2023-04-04T03:34:46;124.97;;;119.40;;
76405;SDS011;65234;50.044;19.258;2023-04-04T03:37:11;127.13;;;121.32;;
76405;SDS011;65234;50.044;19.258;2023-04-04T03:39:37;128.30;;;122.45;;
76405;SDS011;65234;50.044;19.258;2023-04-04T03:42:04;124.85;;;118.85;;
76405;SDS011;65234;50.044;19.258;2023-04-04T03:44:29;127.90;;;121.35;;
76405;SDS011;65234;50.044;19.258;2023-04-04T03:46:55;122.55;;;116.80;;
76405;SDS011;65234;50.044;19.258;2023-04-04T03:49:20;124.78;;;118.97;;
76405;SDS011;65234;50.044;19.258;2023-04-04T03:51:46;127.28;;;121.32;;
76405;SDS011;65234;50.044;19.258;2023-04-04T03:54:11;127.30;;;121.20;;
76405;SDS011;65234;50.044;19.258;2023-04-04T03:56:37;126.43;;;120.85;;
76405;SDS011;65234;50.044;19.258;2023-04-04T03:59:04;122.00;;;116.32;;
76405;SDS011;65234;50.044;19.258;2023-04-04T04:01:29;122.65;;;116.82;;
76405;SDS011;65234;50.044;19.258;2023-04-04T04:03:55;121.47;;;116.07;;
76405;SDS011;65234;50.044;19.258;2023-04-04T04:06:20;119.38;;;113.60;;
76405;SDS011;65234;50.044;19.258;2023-04-04T04:08:46;121.90;;;116.35;;
76405;SDS011;65234;50.044;19.258;2023-04-04T04:11:11;119.47;;;114.15;;
76405;SDS011;65234;50.044;19.258;2023-04-04T04:13:37;126.03;;;120.13;;
76405;SDS011;65234;50.044;19.258;2023-04-04T04:16:04;124.55;;;119.03;;
76405;SDS011;65234;50.044;19.258;2023-04-04T04:18:29;122.05;;;116.78;;
76405;SDS011;65234;50.044;19.258;2023-04-04T04:20:55;118.82;;;113.40;;
76405;SDS011;65234;50.044;19.258;2023-04-04T04:23:21;120.85;;;115.32;;
76405;SDS011;65234;50.044;19.258;2023-04-04T04:25:46;123.22;;;117.60;;
76405;SDS011;65234;50.044;19.258;2023-04-04T04:28:12;123.57;;;117.68;;
76405;SDS011;65234;50.044;19.258;2023-04-04T04:30:38;122.97;;;117.28;;
76405;SDS011;65234;50.044;19.258;2023-04-04T04:33:05;117.22;;;111.65;;
76405;SDS011;65234;50.044;19.258;2023-04-04T04:35:30;121.75;;;115.90;;
76405;SDS011;65234;50.044;19.258;2023-04-04T04:37:56;125.95;;;120.15;;
76405;SDS011;65234;50.044;19.258;2023-04-04T04:40:21;122.38;;;116.82;;
76405;SDS011;65234;50.044;19.258;2023-04-04T04:42:47;119.65;;;114.20;;
76405;SDS011;65234;50.044;19.258;2023-04-04T04:45:12;120.57;;;114.97;;
76405;SDS011;65234;50.044;19.258;2023-04-04T04:47:38;117.15;;;111.95;;
76405;SDS011;65234;50.044;19.258;2023-04-04T04:50:05;117.80;;;112.50;;
76405;SDS011;65234;50.044;19.258;2023-04-04T04:52:31;123.82;;;118.20;;
76405;SDS011;65234;50.044;19.258;2023-04-04T04:54:56;124.95;;;119.40;;
76405;SDS011;65234;50.044;19.258;2023-04-04T04:57:22;120.13;;;114.78;;
76405;SDS011;65234;50.044;19.258;2023-04-04T04:59:47;118.15;;;112.65;;
76405;SDS011;65234;50.044;19.258;2023-04-04T05:02:14;121.47;;;115.97;;
76405;SDS011;65234;50.044;19.258;2023-04-04T05:04:39;120.35;;;114.63;;
76405;SDS011;65234;50.044;19.258;2023-04-04T05:07:06;122.78;;;116.95;;
76405;SDS011;65234;50.044;19.258;2023-04-04T05:09:31;121.32;;;115.63;;
76405;SDS011;65234;50.044;19.258;2023-04-04T05:11:57;118.50;;;113.07;;
76405;SDS011;65234;50.044;19.258;2023-04-04T05:14:22;117.68;;;112.07;;
76405;SDS011;65234;50.044;19.258;2023-04-04T05:16:48;119.30;;;114.03;;
76405;SDS011;65234;50.044;19.258;2023-04-04T05:19:13;117.88;;;112.28;;
76405;SDS011;65234;50.044;19.258;2023-04-04T05:21:39;122.88;;;117.25;;
76405;SDS011;65234;50.044;19.258;2023-04-04T05:24:06;114.32;;;108.97;;
76405;SDS011;65234;50.044;19.258;2023-04-04T05:26:32;120.40;;;114.65;;
76405;SDS011;65234;50.044;19.258;2023-04-04T05:28:58;119.32;;;113.75;;
76405;SDS011;65234;50.044;19.258;2023-04-04T05:31:24;120.25;;;114.63;;
76405;SDS011;65234;50.044;19.258;2023-04-04T05:33:49;115.13;;;109.90;;
76405;SDS011;65234;50.044;19.258;2023-04-04T05:36:15;116.18;;;110.80;;
76405;SDS011;65234;50.044;19.258;2023-04-04T05:38:40;116.78;;;111.60;;
76405;SDS011;65234;50.044;19.258;2023-04-04T05:41:07;114.50;;;109.30;;
76405;SDS011;65234;50.044;19.258;2023-04-04T05:43:32;119.75;;;113.70;;
76405;SDS011;65234;50.044;19.258;2023-04-04T05:45:58;114.68;;;109.35;;
76405;SDS011;65234;50.044;19.258;2023-04-04T05:48:23;112.88;;;107.75;;
76405;SDS011;65234;50.044;19.258;2023-04-04T05:50:49;111.82;;;106.25;;
76405;SDS011;65234;50.044;19.258;2023-04-04T05:53:14;115.60;;;110.43;;
76405;SDS011;65234;50.044;19.258;2023-04-04T05:55:40;116.63;;;111.20;;
76405;SDS011;65234;50.044;19.258;2023-04-04T05:58:07;118.38;;;112.82;;
76405;SDS011;65234;50.044;19.258;2023-04-04T06:00:32;119.82;;;114.32;;
76405;SDS011;65234;50.044;19.258;2023-04-04T06:02:58;121.03;;;115.47;;
76405;SDS011;65234;50.044;19.258;2023-04-04T06:05:23;119.70;;;114.32;;
76405;SDS011;65234;50.044;19.258;2023-04-04T06:07:49;114.68;;;109.18;;
76405;SDS011;65234;50.044;19.258;2023-04-04T06:10:14;117.85;;;112.10;;
76405;SDS011;65234;50.044;19.258;2023-04-04T06:12:40;115.47;;;110.30;;
76405;SDS011;65234;50.044;19.258;2023-04-04T06:15:07;115.45;;;109.90;;
76405;SDS011;65234;50.044;19.258;2023-04-04T06:17:33;119.50;;;114.15;;
76405;SDS011;65234;50.044;19.258;2023-04-04T06:19:59;116.32;;;111.05;;
76405;SDS011;65234;50.044;19.258;2023-04-04T06:22:24;120.85;;;115.18;;
76405;SDS011;65234;50.044;19.258;2023-04-04T06:24:50;117.90;;;111.80;;
76405;SDS011;65234;50.044;19.258;2023-04-04T06:27:15;117.72;;;112.38;;
76405;SDS011;65234;50.044;19.258;2023-04-04T06:29:41;117.78;;;112.18;;
76405;SDS011;65234;50.044;19.258;2023-04-04T06:32:08;116.55;;;110.65;;
76405;SDS011;65234;50.044;19.258;2023-04-04T06:34:33;117.38;;;112.05;;
76405;SDS011;65234;50.044;19.258;2023-04-04T06:36:59;117.47;;;111.82;;
76405;SDS011;65234;50.044;19.258;2023-04-04T06:39:24;114.53;;;109.13;;
76405;SDS011;65234;50.044;19.258;2023-04-04T06:41:50;118.00;;;112.43;;
76405;SDS011;65234;50.044;19.258;2023-04-04T06:44:15;118.00;;;112.32;;
76405;SDS011;65234;50.044;19.258;2023-04-04T06:46:41;120.65;;;114.80;;
76405;SDS011;65234;50.044;19.258;2023-04-04T06:49:08;110.78;;;105.60;;
76405;SDS011;65234;50.044;19.258;2023-04-04T06:51:33;118.32;;;112.75;;
76405;SDS011;65234;50.044;19.258;2023-04-04T06:53:59;118.65;;;113.22;;
76405;SDS011;65234;50.044;19.258;2023-04-04T06:56:24;120.80;;;115.40;;
76405;SDS011;65234;50.044;19.258;2023-04-04T06:58:50;117.75;;;112.35;;
76405;SDS011;65234;50.044;19.258;2023-04-04T07:01:15;116.82;;;111.63;;
76405;SDS011;65234;50.044;19.258;2023-04-04T07:03:41;117.78;;;111.68;;
76405;SDS011;65234;50.044;19.258;2023-04-04T07:06:08;119.25;;;113.80;;
76405;SDS011;65234;50.044;19.258;2023-04-04T07:08:33;118.22;;;112.57;;
76405;SDS011;65234;50.044;19.258;2023-04-04T07:10:59;116.78;;;111.57;;
76405;SDS011;65234;50.044;19.258;2023-04-04T07:13:24;118.38;;;112.63;;
76405;SDS011;65234;50.044;19.258;2023-04-04T07:15:50;119.93;;;113.90;;
76405;SDS011;65234;50.044;19.258;2023-04-04T07:18:16;170.15;;;153.73;;
76405;SDS011;65234;50.044;19.258;2023-04-04T07:20:41;151.60;;;138.25;;
76405;SDS011;65234;50.044;19.258;2023-04-04T07:23:08;170.32;;;153.18;;
76405;SDS011;65234;50.044;19.258;2023-04-04T07:25:33;166.50;;;150.13;;
76405;SDS011;65234;50.044;19.258;2023-04-04T07:27:59;177.48;;;159.68;;
76405;SDS011;65234;50.044;19.258;2023-04-04T07:30:25;170.27;;;152.30;;
76405;SDS011;65234;50.044;19.258;2023-04-04T07:32:55;175.10;;;156.48;;
76405;SDS011;65234;50.044;19.258;2023-04-04T07:35:20;174.35;;;156.82;;
76405;SDS011;65234;50.044;19.258;2023-04-04T07:37:46;174.20;;;156.73;;
76405;SDS011;65234;50.044;19.258;2023-04-04T07:40:13;167.77;;;151.43;;
76405;SDS011;65234;50.044;19.258;2023-04-04T07:42:42;167.77;;;151.65;;
76405;SDS011;65234;50.044;19.258;2023-04-04T07:45:07;171.35;;;155.13;;
76405;SDS011;65234;50.044;19.258;2023-04-04T07:47:33;215.35;;;185.27;;
76405;SDS011;65234;50.044;19.258;2023-04-04T07:49:59;260.58;;;200.30;;
76405;SDS011;65234;50.044;19.258;2023-04-04T07:52:24;217.90;;;185.02;;
76405;SDS011;65234;50.044;19.258;2023-04-04T07:54:50;220.95;;;180.20;;
76405;SDS011;65234;50.044;19.258;2023-04-04T07:57:17;207.15;;;174.40;;
76405;SDS011;65234;50.044;19.258;2023-04-04T07:59:42;203.68;;;181.20;;
76405;SDS011;65234;50.044;19.258;2023-04-04T08:02:07;194.27;;;173.10;;
76405;SDS011;65234;50.044;19.258;2023-04-04T08:04:33;197.38;;;176.20;;
76405;SDS011;65234;50.044;19.258;2023-04-04T08:06:59;208.80;;;177.27;;
76405;SDS011;65234;50.044;19.258;2023-04-04T08:09:24;198.50;;;175.13;;
76405;SDS011;65234;50.044;19.258;2023-04-04T08:11:50;191.95;;;166.90;;
76405;SDS011;65234;50.044;19.258;2023-04-04T08:14:16;187.60;;;167.18;;
76405;SDS011;65234;50.044;19.258;2023-04-04T08:16:42;180.18;;;161.43;;
76405;SDS011;65234;50.044;19.258;2023-04-04T08:19:07;188.85;;;168.98;;
76405;SDS011;65234;50.044;19.258;2023-04-04T08:21:33;184.10;;;165.63;;
76405;SDS011;65234;50.044;19.258;2023-04-04T08:23:58;180.57;;;161.77;;
76405;SDS011;65234;50.044;19.258;2023-04-04T08:26:24;179.90;;;161.35;;
76405;SDS011;65234;50.044;19.258;2023-04-04T08:28:49;179.70;;;161.00;;
76405;SDS011;65234;50.044;19.258;2023-04-04T08:31:17;179.80;;;162.85;;
76405;SDS011;65234;50.044;19.258;2023-04-04T08:33:42;173.82;;;157.10;;
76405;SDS011;65234;50.044;19.258;2023-04-04T08:36:08;169.50;;;153.02;;
76405;SDS011;65234;50.044;19.258;2023-04-04T08:38:33;166.68;;;150.48;;
76405;SDS011;65234;50.044;19.258;2023-04-04T08:40:59;170.98;;;155.55;;
76405;SDS011;65234;50.044;19.258;2023-04-04T08:43:24;175.15;;;158.02;;
76405;SDS011;65234;50.044;19.258;2023-04-04T08:45:51;166.90;;;149.65;;
76405;SDS011;65234;50.044;19.258;2023-04-04T08:48:19;166.52;;;150.30;;
76405;SDS011;65234;50.044;19.258;2023-04-04T08:50:45;170.48;;;154.23;;
76405;SDS011;65234;50.044;19.258;2023-04-04T08:53:11;179.30;;;161.65;;
76405;SDS011;65234;50.044;19.258;2023-04-04T08:55:38;183.27;;;165.82;;
76405;SDS011;65234;50.044;19.258;2023-04-04T08:58:03;181.60;;;163.52;;
76405;SDS011;65234;50.044;19.258;2023-04-04T09:00:29;134.65;;;126.28;;
76405;SDS011;65234;50.044;19.258;2023-04-04T09:02:56;121.47;;;115.05;;
76405;SDS011;65234;50.044;19.258;2023-04-04T09:05:25;129.27;;;122.70;;
76405;SDS011;65234;50.044;19.258;2023-04-04T09:07:51;137.50;;;130.65;;
76405;SDS011;65234;50.044;19.258;2023-04-04T09:10:17;129.88;;;123.80;;
76405;SDS011;65234;50.044;19.258;2023-04-04T09:12:44;125.57;;;119.50;;
76405;SDS011;65234;50.044;19.258;2023-04-04T09:15:10;125.60;;;119.50;;
76405;SDS011;65234;50.044;19.258;2023-04-04T09:17:35;123.05;;;117.18;;
76405;SDS011;65234;50.044;19.258;2023-04-04T09:20:01;126.63;;;119.47;;
76405;SDS011;65234;50.044;19.258;2023-04-04T09:22:28;123.88;;;118.05;;
76405;SDS011;65234;50.044;19.258;2023-04-04T09:24:54;121.55;;;115.75;;
76405;SDS011;65234;50.044;19.258;2023-04-04T09:27:20;123.43;;;117.32;;
76405;SDS011;65234;50.044;19.258;2023-04-04T09:29:46;123.43;;;117.68;;
76405;SDS011;65234;50.044;19.258;2023-04-04T09:32:12;122.38;;;116.47;;
76405;SDS011;65234;50.044;19.258;2023-04-04T09:34:38;117.15;;;111.90;;
76405;SDS011;65234;50.044;19.258;2023-04-04T09:37:04;117.90;;;112.50;;
76405;SDS011;65234;50.044;19.258;2023-04-04T09:39:31;122.18;;;116.22;;
76405;SDS011;65234;50.044;19.258;2023-04-04T09:41:56;118.55;;;112.70;;
76405;SDS011;65234;50.044;19.258;2023-04-04T09:44:22;116.53;;;110.75;;
76405;SDS011;65234;50.044;19.258;2023-04-04T09:46:48;150.82;;;137.43;;
76405;SDS011;65234;50.044;19.258;2023-04-04T09:49:17;150.23;;;138.10;;
76405;SDS011;65234;50.044;19.258;2023-04-04T09:51:43;144.75;;;134.27;;
76405;SDS011;65234;50.044;19.258;2023-04-04T09:54:15;141.73;;;130.52;;
76405;SDS011;65234;50.044;19.258;2023-04-04T09:56:45;137.80;;;127.70;;
76405;SDS011;65234;50.044;19.258;2023-04-04T09:59:11;134.30;;;125.10;;
76405;SDS011;65234;50.044;19.258;2023-04-04T10:01:38;135.50;;;126.03;;
76405;SDS011;65234;50.044;19.258;2023-04-04T10:04:03;133.73;;;124.90;;
76405;SDS011;65234;50.044;19.258;2023-04-04T10:06:29;133.02;;;123.97;;
76405;SDS011;65234;50.044;19.258;2023-04-04T10:08:54;132.05;;;122.97;;
76405;SDS011;65234;50.044;19.258;2023-04-04T10:11:27;135.15;;;125.15;;
76405;SDS011;65234;50.044;19.258;2023-04-04T10:13:54;134.05;;;124.47;;
76405;SDS011;65234;50.044;19.258;2023-04-04T10:16:20;129.50;;;120.93;;
76405;SDS011;65234;50.044;19.258;2023-04-04T10:18:48;130.75;;;122.50;;
76405;SDS011;65234;50.044;19.258;2023-04-04T10:21:14;133.68;;;124.43;;
76405;SDS011;65234;50.044;19.258;2023-04-04T10:23:40;128.35;;;120.03;;
76405;SDS011;65234;50.044;19.258;2023-04-04T10:26:06;130.60;;;122.07;;
76405;SDS011;65234;50.044;19.258;2023-04-04T10:28:32;130.40;;;121.35;;
76405;SDS011;65234;50.044;19.258;2023-04-04T10:30:59;134.32;;;125.28;;
76405;SDS011;65234;50.044;19.258;2023-04-04T10:33:29;131.20;;;123.13;;
76405;SDS011;65234;50.044;19.258;2023-04-04T10:35:57;131.45;;;122.20;;
76405;SDS011;65234;50.044;19.258;2023-04-04T10:38:27;129.75;;;120.93;;
76405;SDS011;65234;50.044;19.258;2023-04-04T10:40:52;130.02;;;121.35;;
76405;SDS011;65234;50.044;19.258;2023-04-04T10:43:21;131.90;;;123.40;;
76405;SDS011;65234;50.044;19.258;2023-04-04T10:45:49;131.32;;;123.25;;
76405;SDS011;65234;50.044;19.258;2023-04-04T10:48:16;134.35;;;125.80;;
76405;SDS011;65234;50.044;19.258;2023-04-04T10:50:42;132.00;;;124.25;;
76405;SDS011;65234;50.044;19.258;2023-04-04T10:53:08;133.98;;;125.22;;
76405;SDS011;65234;50.044;19.258;2023-04-04T10:55:33;131.57;;;123.00;;
76405;SDS011;65234;50.044;19.258;2023-04-04T10:57:59;131.25;;;123.22;;
76405;SDS011;65234;50.044;19.258;2023-04-04T11:00:25;126.97;;;118.93;;
76405;SDS011;65234;50.044;19.258;2023-04-04T11:02:52;131.18;;;123.53;;
76405;SDS011;65234;50.044;19.258;2023-04-04T11:05:20;127.10;;;119.85;;
76405;SDS011;65234;50.044;19.258;2023-04-04T11:07:46;126.88;;;118.30;;
76405;SDS011;65234;50.044;19.258;2023-04-04T11:10:12;127.43;;;120.20;;
76405;SDS011;65234;50.044;19.258;2023-04-04T11:12:41;127.80;;;120.28;;
76405;SDS011;65234;50.044;19.258;2023-04-04T11:15:07;132.40;;;124.00;;
76405;SDS011;65234;50.044;19.258;2023-04-04T11:17:43;129.50;;;122.20;;
76405;SDS011;65234;50.044;19.258;2023-04-04T11:20:14;123.32;;;116.13;;
76405;SDS011;65234;50.044;19.258;2023-04-04T11:22:41;126.43;;;118.78;;
76405;SDS011;65234;50.044;19.258;2023-04-04T11:27:52;127.10;;;120.03;;
76405;SDS011;65234;50.044;19.258;2023-04-04T11:30:18;124.93;;;117.68;;
76405;SDS011;65234;50.044;19.258;2023-04-04T11:32:46;122.47;;;115.15;;
76405;SDS011;65234;50.044;19.258;2023-04-04T11:35:12;123.35;;;116.50;;
76405;SDS011;65234;50.044;19.258;2023-04-04T11:37:43;124.72;;;117.75;;
76405;SDS011;65234;50.044;19.258;2023-04-04T11:42:49;121.90;;;115.38;;
76405;SDS011;65234;50.044;19.258;2023-04-04T11:45:17;121.82;;;114.63;;
76405;SDS011;65234;50.044;19.258;2023-04-04T11:47:45;119.85;;;113.15;;
76405;SDS011;65234;50.044;19.258;2023-04-04T11:50:12;122.55;;;114.88;;
76405;SDS011;65234;50.044;19.258;2023-04-04T11:52:39;120.68;;;113.53;;
76405;SDS011;65234;50.044;19.258;2023-04-04T11:55:14;120.03;;;113.78;;
76405;SDS011;65234;50.044;19.258;2023-04-04T11:57:40;116.22;;;110.53;;
76405;SDS011;65234;50.044;19.258;2023-04-04T12:00:06;116.93;;;110.15;;
76405;SDS011;65234;50.044;19.258;2023-04-04T12:02:32;120.18;;;113.65;;
76405;SDS011;65234;50.044;19.258;2023-04-04T12:04:59;118.13;;;111.43;;
76405;SDS011;65234;50.044;19.258;2023-04-04T12:07:24;121.25;;;114.28;;
76405;SDS011;65234;50.044;19.258;2023-04-04T12:09:50;118.15;;;111.88;;
76405;SDS011;65234;50.044;19.258;2023-04-04T12:12:17;124.70;;;118.25;;
76405;SDS011;65234;50.044;19.258;2023-04-04T12:14:42;121.40;;;114.85;;
76405;SDS011;65234;50.044;19.258;2023-04-04T12:17:09;121.38;;;114.47;;
76405;SDS011;65234;50.044;19.258;2023-04-04T12:19:35;118.35;;;112.15;;
76405;SDS011;65234;50.044;19.258;2023-04-04T12:22:01;122.72;;;116.22;;
76405;SDS011;65234;50.044;19.258;2023-04-04T12:24:27;120.43;;;114.15;;
76405;SDS011;65234;50.044;19.258;2023-04-04T12:26:52;121.57;;;115.45;;
76405;SDS011;65234;50.044;19.258;2023-04-04T12:29:20;122.20;;;115.80;;
76405;SDS011;65234;50.044;19.258;2023-04-04T12:31:46;117.93;;;111.78;;
76405;SDS011;65234;50.044;19.258;2023-04-04T12:34:15;120.25;;;114.55;;
76405;SDS011;65234;50.044;19.258;2023-04-04T12:36:41;122.22;;;116.50;;
76405;SDS011;65234;50.044;19.258;2023-04-04T12:39:08;122.15;;;116.53;;
76405;SDS011;65234;50.044;19.258;2023-04-04T12:41:34;122.68;;;117.13;;
76405;SDS011;65234;50.044;19.258;2023-04-04T12:43:59;123.03;;;117.22;;
76405;SDS011;65234;50.044;19.258;2023-04-04T12:46:27;121.88;;;116.18;;
76405;SDS011;65234;50.044;19.258;2023-04-04T12:48:52;122.07;;;115.90;;
76405;SDS011;65234;50.044;19.258;2023-04-04T12:51:18;118.60;;;113.10;;
76405;SDS011;65234;50.044;19.258;2023-04-04T12:53:50;117.93;;;112.47;;
76405;SDS011;65234;50.044;19.258;2023-04-04T12:56:16;119.50;;;113.95;;
76405;SDS011;65234;50.044;19.258;2023-04-04T12:58:41;118.13;;;112.57;;
76405;SDS011;65234;50.044;19.258;2023-04-04T13:01:10;121.10;;;115.30;;
76405;SDS011;65234;50.044;19.258;2023-04-04T13:03:37;117.07;;;111.47;;
76405;SDS011;65234;50.044;19.258;2023-04-04T13:06:09;114.72;;;109.28;;
76405;SDS011;65234;50.044;19.258;2023-04-04T13:08:34;115.82;;;110.47;;
76405;SDS011;65234;50.044;19.258;2023-04-04T13:11:00;115.85;;;110.25;;
76405;SDS011;65234;50.044;19.258;2023-04-04T13:13:33;116.60;;;111.00;;
76405;SDS011;65234;50.044;19.258;2023-04-04T13:15:59;114.35;;;109.20;;
76405;SDS011;65234;50.044;19.258;2023-04-04T13:18:25;113.30;;;108.18;;
76405;SDS011;65234;50.044;19.258;2023-04-04T13:20:52;111.88;;;106.82;;
76405;SDS011;65234;50.044;19.258;2023-04-04T13:23:18;117.10;;;111.60;;
76405;SDS011;65234;50.044;19.258;2023-04-04T13:25:45;117.40;;;111.80;;
76405;SDS011;65234;50.044;19.258;2023-04-04T13:28:10;119.07;;;113.63;;
76405;SDS011;65234;50.044;19.258;2023-04-04T13:30:36;115.55;;;110.22;;
76405;SDS011;65234;50.044;19.258;2023-04-04T13:33:01;115.20;;;109.80;;
76405;SDS011;65234;50.044;19.258;2023-04-04T13:35:27;111.25;;;106.38;;
76405;SDS011;65234;50.044;19.258;2023-04-04T13:37:54;117.75;;;112.32;;
76405;SDS011;65234;50.044;19.258;2023-04-04T13:40:19;117.72;;;112.03;;
76405;SDS011;65234;50.044;19.258;2023-04-04T13:42:45;115.35;;;110.15;;